Time;durP1;ratioP1;P1;durP2;ratioP2;P2;SDS_P1;SDS_P2;PMS_P1;PMS_P2;Temp;Humidity;BMP_temperature;BMP_pressure;BME280_temperature;BME280_humidity;BME280_pressure;Samples;Min_cycle;Max_cycle;Signal;HPM_P1;HPM_P2
2022/11/03 00:02:00;;;;;;;6.72;1.77;;;;;;;7.76;100.00;101491.75;4928395;28;20217;-49
2022/11/03 00:04:26;;;;;;;7.20;2.03;;;;;;;7.76;100.00;101487.34;4925465;28;20324;-51
2022/11/03 00:06:53;;;;;;;6.32;2.20;;;;;;;7.72;100.00;101476.72;4925500;29;20667;-50
2022/11/03 00:09:20;;;;;;;15.30;2.60;;;;;;;7.71;100.00;101474.97;4921448;29;20231;-49
2022/11/03 00:12:16;;;;;;;13.45;2.22;;;;;;;7.76;100.00;101471.34;4922277;29;20257;-49
2022/11/03 00:14:42;;;;;;;8.60;2.70;;;;;;;7.70;100.00;101474.09;4921823;29;20227;-50
2022/11/03 00:17:07;;;;;;;8.95;2.22;;;;;;;7.76;100.00;101470.44;4921527;29;20556;-49
2022/11/03 00:19:33;;;;;;;7.28;2.70;;;;;;;7.75;100.00;101464.22;4987014;28;20229;-50
2022/11/03 00:21:59;;;;;;;10.38;2.45;;;;;;;7.76;100.00;101466.00;4924603;28;20223;-50
2022/11/03 00:24:24;;;;;;;10.40;2.15;;;;;;;7.78;100.00;101457.94;4921754;28;20216;-52
2022/11/03 00:26:50;;;;;;;9.65;2.10;;;;;;;7.79;100.00;101449.94;4922408;29;20207;-50
2022/11/03 00:29:15;;;;;;;15.80;2.50;;;;;;;7.74;100.00;101446.47;4922712;28;20287;-50
2022/11/03 00:31:43;;;;;;;9.10;2.30;;;;;;;7.73;100.00;101439.34;5004319;28;20191;-51
2022/11/03 00:34:09;;;;;;;8.43;2.17;;;;;;;7.69;100.00;101434.97;4923313;29;20633;-51
2022/11/03 00:36:38;;;;;;;10.32;2.63;;;;;;;7.70;100.00;101436.75;4986528;28;20188;-49
2022/11/03 00:39:04;;;;;;;6.93;2.00;;;;;;;7.79;100.00;101435.72;4920970;29;20190;-50
2022/11/03 00:41:31;;;;;;;11.68;2.22;;;;;;;7.77;100.00;101435.72;4986173;28;20208;-50
2022/11/03 00:43:56;;;;;;;10.57;2.40;;;;;;;7.74;100.00;101442.91;4991843;28;20257;-51
2022/11/03 00:46:24;;;;;;;8.43;2.20;;;;;;;7.75;100.00;101426.88;4926615;28;21015;-50
2022/11/03 00:48:50;;;;;;;9.90;2.33;;;;;;;7.71;100.00;101427.84;4926642;29;20198;-51
2022/11/03 00:51:18;;;;;;;10.10;2.42;;;;;;;7.72;100.00;101431.38;4923306;28;20198;-50
2022/11/03 00:53:46;;;;;;;10.70;2.40;;;;;;;7.71;100.00;101425.16;4926768;28;20668;-51
2022/11/03 00:56:21;;;;;;;9.90;2.67;;;;;;;7.70;100.00;101423.41;4993248;28;20198;-50
2022/11/03 00:58:47;;;;;;;10.07;1.95;;;;;;;7.70;100.00;101417.22;4921295;29;20278;-49
2022/11/03 01:01:18;;;;;;;10.63;2.83;;;;;;;7.69;100.00;101416.31;4921715;29;20191;-50
2022/11/03 01:06:51;;;;;;;10.02;2.25;;;;;;;7.68;100.00;101406.56;4924737;29;20206;-49
2022/11/03 01:09:17;;;;;;;7.88;2.10;;;;;;;7.66;100.00;101407.50;4923488;29;20199;-49
2022/11/03 01:11:49;;;;;;;9.32;2.10;;;;;;;7.68;99.93;101411.03;4923646;29;20222;-51
2022/11/03 01:14:15;;;;;;;8.27;2.33;;;;;;;7.67;100.00;101396.78;4921211;29;20207;-49
2022/11/03 01:16:41;;;;;;;6.43;2.13;;;;;;;7.66;100.00;101403.03;4922076;29;20187;-51
2022/11/03 01:19:07;;;;;;;11.93;2.47;;;;;;;7.73;99.46;101393.13;4922404;29;20187;-51
2022/11/03 01:21:33;;;;;;;7.45;2.92;;;;;;;7.72;99.47;101384.25;4924654;29;20184;-51
2022/11/03 01:24:03;;;;;;;9.63;2.40;;;;;;;7.74;99.58;101384.22;4993129;28;20426;-50
2022/11/03 01:26:29;;;;;;;12.10;2.53;;;;;;;7.70;99.50;101379.88;4923971;29;20692;-50
2022/11/03 01:28:55;;;;;;;8.90;2.08;;;;;;;7.76;99.38;101379.75;4925918;29;20191;-49
2022/11/03 01:31:22;;;;;;;6.82;2.05;;;;;;;7.80;98.85;101376.97;4924350;29;20619;-49
2022/11/03 01:33:49;;;;;;;9.98;2.75;;;;;;;7.81;99.00;101369.88;4921856;29;20250;-51
2022/11/03 01:36:16;;;;;;;6.38;2.35;;;;;;;7.79;98.69;101372.56;4986530;28;20196;-50
2022/11/03 01:38:42;;;;;;;7.63;1.92;;;;;;;7.81;98.79;101364.56;4924862;29;20333;-52
2022/11/03 01:41:12;;;;;;;14.63;2.53;;;;;;;7.83;98.60;101355.59;4925585;28;20278;-49
2022/11/03 01:43:38;;;;;;;11.30;2.40;;;;;;;7.88;98.50;101359.97;4922381;29;20285;-49
2022/11/03 01:46:10;;;;;;;12.82;2.50;;;;;;;7.86;98.32;101348.47;4925992;29;20187;-49
2022/11/03 01:48:40;;;;;;;11.18;2.28;;;;;;;7.85;98.43;101342.25;4925502;29;20207;-49
2022/11/03 01:51:08;;;;;;;9.55;1.98;;;;;;;7.89;98.52;101349.25;4914712;29;20187;-49
2022/11/03 01:53:37;;;;;;;7.50;1.90;;;;;;;7.93;98.20;101347.44;4917742;29;20258;-50
2022/11/03 01:56:03;;;;;;;11.68;2.10;;;;;;;7.92;98.36;101337.69;4921596;29;20678;-49
2022/11/03 01:58:33;;;;;;;9.73;2.20;;;;;;;7.98;98.18;101337.53;4923086;29;20482;-50
2022/11/03 02:01:01;;;;;;;6.55;1.77;;;;;;;8.02;97.85;101336.56;5005835;28;20199;-52
2022/11/03 02:03:32;;;;;;;8.73;1.92;;;;;;;8.00;97.63;101327.72;4924332;29;20271;-48
2022/11/03 02:05:58;;;;;;;10.52;2.22;;;;;;;8.02;97.51;101320.56;4924447;29;20354;-50
2022/11/03 02:08:37;;;;;;;10.43;2.33;;;;;;;8.05;97.67;101317.84;4921342;29;20210;-50
2022/11/03 02:12:05;;;;;;;8.75;2.20;;;;;;;8.02;97.61;101325.91;4926379;28;20659;-48
2022/11/03 02:13:47;;;;;;;6.07;1.70;;;;;;;7.99;97.45;101313.50;4921878;29;20289;-53
2022/11/03 02:16:14;;;;;;;11.63;2.20;;;;;;;8.01;97.49;101317.00;4924036;29;20270;-48
2022/11/03 02:18:42;;;;;;;9.38;2.40;;;;;;;8.01;97.49;101322.34;4923685;29;20671;-47
2022/11/03 02:21:10;;;;;;;8.07;1.80;;;;;;;7.98;97.53;101325.09;4922845;29;20569;-49
2022/11/03 02:24:12;;;;;;;11.68;2.10;;;;;;;8.01;97.61;101313.47;4924995;29;20199;-47
2022/11/03 02:26:39;;;;;;;8.68;2.15;;;;;;;8.07;97.70;101308.03;4992073;28;20227;-47
2022/11/03 02:29:05;;;;;;;8.50;2.35;;;;;;;8.04;97.40;101314.28;4928637;29;20220;-46
2022/11/03 02:31:39;;;;;;;7.68;1.83;;;;;;;8.11;97.26;101309.72;4922103;29;20220;-49
2022/11/03 02:34:20;;;;;;;8.63;2.10;;;;;;;8.11;97.04;101301.72;4918171;29;20227;-48
2022/11/03 02:36:51;;;;;;;7.18;2.25;;;;;;;8.09;97.14;101307.97;4922701;29;20180;-47
2022/11/03 02:39:23;;;;;;;9.85;2.17;;;;;;;8.11;97.05;101303.47;4920444;29;20192;-47
2022/11/03 02:41:53;;;;;;;9.25;2.13;;;;;;;8.07;96.91;101294.69;4915863;28;20187;-47
2022/11/03 02:44:19;;;;;;;9.10;2.38;;;;;;;8.03;97.08;101299.19;4918635;29;20777;-49
2022/11/03 02:46:53;;;;;;;8.85;2.30;;;;;;;8.07;97.21;101304.44;4923454;29;20268;-50
2022/11/03 02:49:20;;;;;;;11.07;2.50;;;;;;;8.00;97.21;101295.69;4975324;28;20347;-46
2022/11/03 02:51:45;;;;;;;10.10;2.65;;;;;;;7.99;97.28;101296.63;4922871;29;20545;-48
2022/11/03 02:54:20;;;;;;;9.98;1.80;;;;;;;7.99;97.27;101300.16;4924705;29;20217;-47
2022/11/03 02:56:53;;;;;;;12.05;2.60;;;;;;;8.07;97.22;101305.34;4994164;28;20232;-51
2022/11/03 02:59:26;;;;;;;8.63;2.72;;;;;;;8.04;97.15;101300.94;4922469;29;20192;-47
2022/11/03 03:02:17;;;;;;;9.85;1.98;;;;;;;7.99;97.35;101297.50;4921880;29;20180;-49
2022/11/03 03:04:52;;;;;;;7.10;1.95;;;;;;;8.05;97.25;101292.03;4923209;29;20714;-46
2022/11/03 03:07:42;;;;;;;11.57;2.00;;;;;;;8.11;97.19;101301.72;4921116;29;20998;-48
2022/11/03 03:10:20;;;;;;;7.25;1.83;;;;;;;8.15;96.85;101297.16;4923953;29;20210;-51
2022/11/03 03:12:48;;;;;;;9.60;2.08;;;;;;;8.10;97.10;101297.28;4922069;29;21551;-47
2022/11/03 03:15:16;;;;;;;5.85;2.00;;;;;;;8.16;96.40;101293.63;4921832;29;20208;-48
2022/11/03 03:18:01;;;;;;;10.20;2.22;;;;;;;8.20;96.40;101292.63;4927463;29;20175;-46
2022/11/03 03:20:40;;;;;;;9.82;2.20;;;;;;;8.18;96.57;101290.00;4920872;29;20257;-47
2022/11/03 03:23:25;;;;;;;9.85;2.00;;;;;;;8.14;96.34;101274.94;4917936;28;20197;-47
2022/11/03 03:26:12;;;;;;;9.63;2.03;;;;;;;8.09;96.37;101266.19;4923150;29;20183;-51
2022/11/03 03:28:44;;;;;;;8.23;2.30;;;;;;;8.08;96.49;101258.19;4928575;29;20376;-46
2022/11/03 03:31:13;;;;;;;8.18;1.95;;;;;;;8.05;96.26;101251.13;4926440;29;20245;-48
2022/11/03 03:33:39;;;;;;;10.02;2.15;;;;;;;8.00;96.40;101239.66;4919814;29;20188;-47
2022/11/03 03:36:12;;;;;;;12.20;2.50;;;;;;;7.99;96.42;101229.91;4924045;29;20211;-48
2022/11/03 03:38:43;;;;;;;12.75;2.58;;;;;;;8.00;96.53;101232.56;4923945;29;20177;-48
2022/11/03 03:41:20;;;;;;;7.97;1.70;;;;;;;7.96;96.55;101227.28;4926680;29;20204;-47
2022/11/03 03:43:51;;;;;;;6.88;1.90;;;;;;;7.93;96.78;101233.56;4919294;29;20200;-51
2022/11/03 03:46:19;;;;;;;7.65;1.90;;;;;;;7.93;96.82;101233.56;4924225;29;20220;-45
2022/11/03 03:48:45;;;;;;;13.10;2.50;;;;;;;7.92;96.66;101233.63;4923112;29;20180;-45
2022/11/03 03:51:12;;;;;;;6.43;2.08;;;;;;;7.86;97.01;101231.06;4921692;29;20182;-46
2022/11/03 03:53:38;;;;;;;12.57;2.30;;;;;;;7.86;96.81;101239.06;4925401;28;20213;-48
2022/11/03 03:56:04;;;;;;;9.95;2.45;;;;;;;7.87;96.83;101235.50;4924176;29;20187;-49
2022/11/03 03:58:30;;;;;;;8.00;1.98;;;;;;;7.83;97.05;101224.03;4925628;29;20189;-49
2022/11/03 04:00:55;;;;;;;7.78;2.53;;;;;;;7.79;96.94;101217.84;4923012;29;20199;-50
2022/11/03 04:03:23;;;;;;;9.93;2.38;;;;;;;7.76;96.95;101227.69;4922324;29;20206;-50
2022/11/03 04:05:49;;;;;;;7.80;2.00;;;;;;;7.66;97.28;101216.34;4922633;29;20191;-46
2022/11/03 04:08:16;;;;;;;8.63;2.42;;;;;;;7.71;97.50;101208.25;4924371;29;20200;-46
2022/11/03 04:22:15;;;;;;;6.65;2.05;;;;;;;7.70;97.60;101207.38;4918988;29;20267;-46
2022/11/03 04:24:30;;;;;;;10.82;2.45;;;;;;;7.72;97.52;101202.00;4922108;29;20199;-49
2022/11/03 04:27:04;;;;;;;7.50;2.17;;;;;;;7.68;97.42;101200.34;4921042;29;20546;-48
2022/11/03 04:29:29;;;;;;;7.10;1.90;;;;;;;7.72;97.69;101194.00;4922827;29;20632;-46
2022/11/03 04:31:55;;;;;;;8.93;2.00;;;;;;;7.77;97.73;101189.47;4924978;29;20175;-49
2022/11/03 04:34:22;;;;;;;9.32;2.05;;;;;;;7.77;97.76;101181.47;4924478;29;20303;-51
2022/11/03 04:36:48;;;;;;;11.82;2.30;;;;;;;7.80;97.76;101187.59;4928564;29;20249;-47
2022/11/03 04:39:18;;;;;;;6.85;1.73;;;;;;;7.80;97.79;101181.38;4924857;29;20204;-48
2022/11/03 04:41:44;;;;;;;6.80;2.08;;;;;;;7.72;97.48;101194.91;4923831;29;20195;-47
2022/11/03 04:44:14;;;;;;;6.45;1.60;;;;;;;7.71;97.68;101184.25;4922524;28;20246;-47
2022/11/03 04:46:40;;;;;;;9.45;2.10;;;;;;;7.76;97.87;101190.34;4922656;29;20700;-50
2022/11/03 04:49:11;;;;;;;11.02;2.15;;;;;;;7.71;97.92;101194.91;4986820;28;20341;-48
2022/11/03 04:51:37;;;;;;;9.82;2.60;;;;;;;7.63;98.30;101193.28;4924142;29;20216;-47
2022/11/03 04:54:22;;;;;;;10.77;2.28;;;;;;;7.63;98.34;101187.06;4926638;28;20653;-47
2022/11/03 04:56:47;;;;;;;6.13;1.90;;;;;;;7.75;98.00;101188.63;4924760;29;20523;-46
2022/11/03 04:59:15;;;;;;;10.38;1.95;;;;;;;7.68;98.31;101179.88;4927036;29;20196;-47
2022/11/03 05:01:43;;;;;;;7.13;1.90;;;;;;;7.67;98.33;101177.22;4921800;29;20176;-48
2022/11/03 05:04:15;;;;;;;12.05;2.15;;;;;;;7.67;98.43;101172.75;4922582;29;20215;-46
2022/11/03 05:06:49;;;;;;;8.35;2.03;;;;;;;7.68;98.46;101177.19;4923178;29;20617;-46
2022/11/03 05:09:19;;;;;;;16.38;2.47;;;;;;;7.69;98.25;101168.28;4927829;28;20198;-49
2022/11/03 05:11:45;;;;;;;6.80;1.80;;;;;;;7.77;98.20;101177.00;4925057;29;20730;-51
2022/11/03 05:14:31;;;;;;;8.35;2.00;;;;;;;7.84;97.90;101162.63;4926424;29;20200;-46
2022/11/03 05:16:57;;;;;;;8.68;2.20;;;;;;;7.79;97.75;101164.50;4919856;29;20183;-51
2022/11/03 05:19:50;;;;;;;10.45;2.20;;;;;;;7.78;97.79;101175.19;4923820;29;20553;-49
2022/11/03 05:22:19;;;;;;;9.13;1.92;;;;;;;7.79;97.68;101180.50;4985786;28;20234;-47
2022/11/03 05:24:44;;;;;;;7.25;2.20;;;;;;;7.71;97.81;101177.13;4922163;29;20992;-45
2022/11/03 05:27:18;;;;;;;5.40;1.80;;;;;;;7.73;97.77;101177.09;4923688;29;20195;-46
2022/11/03 05:29:43;;;;;;;10.13;2.22;;;;;;;7.67;97.80;101170.09;4929645;29;20540;-46
2022/11/03 05:32:32;;;;;;;5.57;1.83;;;;;;;7.68;97.93;101177.19;4927130;29;20292;-50
2022/11/03 05:34:58;;;;;;;8.50;2.00;;;;;;;7.63;97.89;101168.41;4928690;29;20276;-47
2022/11/03 05:37:29;;;;;;;7.13;1.70;;;;;;;7.67;98.06;101155.88;4930335;29;20200;-49
2022/11/03 05:40:02;;;;;;;8.02;2.20;;;;;;;7.62;97.92;101162.19;4923872;29;20844;-46
2022/11/03 05:42:36;;;;;;;7.13;2.10;;;;;;;7.62;98.26;101158.66;4926773;29;20180;-51
2022/11/03 05:45:19;;;;;;;9.88;2.42;;;;;;;7.59;98.09;101145.41;4921723;29;20211;-47
2022/11/03 05:47:45;;;;;;;10.45;2.50;;;;;;;7.51;98.56;101148.19;4925167;29;20192;-48
2022/11/03 05:50:17;;;;;;;8.40;1.95;;;;;;;7.49;98.52;101144.69;4986424;28;20211;-47
2022/11/03 05:52:45;;;;;;;8.48;2.38;;;;;;;7.49;98.63;101130.50;4990050;28;20188;-48
2022/11/03 05:55:41;;;;;;;9.63;2.15;;;;;;;7.50;99.09;101133.13;4921915;29;20200;-46
2022/11/03 05:58:30;;;;;;;6.85;2.08;;;;;;;7.45;99.32;101134.13;4940874;28;20323;-47
2022/11/03 06:00:56;;;;;;;7.60;2.13;;;;;;;7.42;99.67;101129.75;4924559;29;20172;-47
2022/11/03 06:03:28;;;;;;;9.60;2.08;;;;;;;7.39;99.44;101122.69;4925025;28;20195;-52
2022/11/03 06:05:55;;;;;;;8.05;2.97;;;;;;;7.36;99.72;101133.41;4927403;28;20191;-46
2022/11/03 06:08:25;;;;;;;8.38;2.53;;;;;;;7.33;100.00;101129.94;4928077;29;20215;-46
2022/11/03 06:10:54;;;;;;;9.30;2.03;;;;;;;7.38;100.00;101122.72;4922985;28;20298;-49
2022/11/03 06:13:25;;;;;;;8.13;2.28;;;;;;;7.34;100.00;101113.88;5000965;28;20188;-46
2022/11/03 06:16:00;;;;;;;10.30;2.25;;;;;;;7.34;100.00;101118.34;4927201;29;20191;-48
2022/11/03 06:18:32;;;;;;;5.18;1.60;;;;;;;7.39;100.00;101119.13;4990702;28;20202;-48
2022/11/03 06:21:07;;;;;;;6.38;1.80;;;;;;;7.40;100.00;101116.44;4982080;28;20198;-45
2022/11/03 06:23:35;;;;;;;6.70;1.65;;;;;;;7.37;100.00;101124.50;4916755;29;20182;-46
2022/11/03 06:26:02;;;;;;;6.28;2.00;;;;;;;7.40;100.00;101115.56;4930064;29;20192;-47
2022/11/03 06:28:31;;;;;;;8.70;2.20;;;;;;;7.38;100.00;101123.59;4923799;29;20226;-48
2022/11/03 06:30:56;;;;;;;6.68;1.98;;;;;;;7.41;100.00;101114.63;4930153;29;20175;-44
2022/11/03 06:33:32;;;;;;;10.05;2.20;;;;;;;7.39;100.00;101114.69;4924509;29;20179;-49
2022/11/03 06:36:01;;;;;;;8.27;2.33;;;;;;;7.40;100.00;101111.09;4988220;28;20581;-47
2022/11/03 06:38:29;;;;;;;15.68;2.50;;;;;;;7.49;100.00;101109.16;4918024;29;20191;-51
2022/11/03 06:40:57;;;;;;;10.13;2.70;;;;;;;7.56;100.00;101105.44;4917039;28;20198;-48
2022/11/03 06:43:40;;;;;;;9.48;2.40;;;;;;;7.54;100.00;101091.28;4988536;28;20191;-49
2022/11/03 06:46:32;;;;;;;8.32;2.40;;;;;;;7.69;100.00;101090.94;4983052;28;20188;-49
2022/11/03 06:49:00;;;;;;;9.07;2.20;;;;;;;7.64;100.00;101088.38;4922714;28;20593;-51
2022/11/03 06:51:29;;;;;;;9.98;2.03;;;;;;;7.64;100.00;101082.16;4924754;29;20271;-47
2022/11/03 06:53:58;;;;;;;9.30;2.20;;;;;;;7.61;100.00;101087.59;4920258;29;20215;-48
2022/11/03 06:56:27;;;;;;;9.85;2.53;;;;;;;7.63;100.00;101086.63;4922724;29;20199;-45
2022/11/03 06:58:54;;;;;;;7.70;2.42;;;;;;;7.65;100.00;101089.25;4925708;29;20334;-49
2022/11/03 07:01:23;;;;;;;6.05;2.08;;;;;;;7.66;100.00;101092.81;4922217;29;20195;-50
2022/11/03 07:03:51;;;;;;;7.07;2.00;;;;;;;7.69;100.00;101088.25;4917286;29;20648;-49
2022/11/03 07:06:26;;;;;;;5.68;1.77;;;;;;;7.66;100.00;101108.81;4923985;29;20184;-49
2022/11/03 07:08:57;;;;;;;8.73;2.08;;;;;;;7.66;100.00;101112.34;4923657;29;20213;-49
2022/11/03 07:11:26;;;;;;;10.93;2.13;;;;;;;7.69;100.00;101095.41;4918609;29;20580;-49
2022/11/03 07:13:56;;;;;;;11.07;2.30;;;;;;;7.71;100.00;101094.44;4919612;28;20219;-49
2022/11/03 07:16:43;;;;;;;7.85;2.17;;;;;;;7.69;100.00;101085.59;5001443;28;20566;-49
2022/11/03 07:19:29;;;;;;;7.80;2.47;;;;;;;7.73;100.00;101092.63;4918486;29;20988;-50
2022/11/03 07:21:58;;;;;;;10.32;2.28;;;;;;;7.71;100.00;101093.56;4983705;28;20679;-49
2022/11/03 07:24:35;;;;;;;13.40;2.05;;;;;;;7.78;100.00;101100.53;4984553;28;20215;-49
2022/11/03 07:27:19;;;;;;;7.20;2.00;;;;;;;7.80;100.00;101102.22;4920997;29;20215;-50
2022/11/03 07:29:46;;;;;;;5.85;2.15;;;;;;;7.90;100.00;101100.25;4923475;29;20203;-49
2022/11/03 07:32:18;;;;;;;14.57;2.60;;;;;;;7.89;100.00;101098.47;4922657;29;20246;-50
2022/11/03 07:34:44;;;;;;;11.20;2.08;;;;;;;7.90;100.00;101102.06;4918303;29;20261;-48
2022/11/03 07:37:18;;;;;;;7.75;2.03;;;;;;;7.93;100.00;101096.63;4923604;29;20184;-49
2022/11/03 07:39:43;;;;;;;10.35;2.53;;;;;;;7.97;100.00;101091.19;4924301;29;20188;-49
2022/11/03 07:42:20;;;;;;;7.07;1.90;;;;;;;7.98;100.00;101097.38;4923002;29;20195;-49
2022/11/03 07:44:47;;;;;;;10.50;2.35;;;;;;;8.02;100.00;101096.41;4918839;29;20702;-50
2022/11/03 07:47:17;;;;;;;13.05;2.30;;;;;;;8.03;100.00;101085.72;4987854;28;20196;-50
2022/11/03 07:49:44;;;;;;;10.05;2.60;;;;;;;8.07;100.00;101086.53;4923816;29;20219;-51
2022/11/03 07:52:13;;;;;;;9.85;2.25;;;;;;;8.06;100.00;101084.75;4924820;28;20272;-51
2022/11/03 07:54:39;;;;;;;8.63;2.28;;;;;;;8.08;100.00;101082.06;4921551;29;20807;-51
2022/11/03 07:57:09;;;;;;;12.63;2.67;;;;;;;8.11;100.00;101080.22;4920471;29;20179;-49
2022/11/03 07:59:41;;;;;;;8.27;2.22;;;;;;;8.18;100.00;101081.81;4922477;29;20651;-50
2022/11/03 08:02:25;;;;;;;11.90;2.55;;;;;;;8.15;100.00;101092.53;4919076;29;20200;-49
2022/11/03 08:04:51;;;;;;;6.70;2.13;;;;;;;8.18;100.00;101080.94;4922844;29;20203;-48
2022/11/03 08:07:16;;;;;;;10.18;2.30;;;;;;;8.20;100.00;101082.66;4922497;28;20212;-47
2022/11/03 08:09:42;;;;;;;7.53;2.08;;;;;;;8.33;100.00;101061.88;4922933;28;20207;-49
2022/11/03 08:12:07;;;;;;;7.97;2.00;;;;;;;8.30;100.00;101058.38;4988912;28;20233;-49
2022/11/03 08:14:33;;;;;;;7.18;2.35;;;;;;;8.26;100.00;101073.59;4924414;29;20612;-49
2022/11/03 08:16:58;;;;;;;11.68;2.40;;;;;;;8.31;100.00;101057.47;4922265;29;20183;-48
2022/11/03 08:19:24;;;;;;;9.63;2.25;;;;;;;8.31;100.00;101063.69;4921790;29;20664;-48
2022/11/03 08:21:49;;;;;;;9.77;2.17;;;;;;;8.37;100.00;101057.31;4924583;28;20188;-48
2022/11/03 08:24:15;;;;;;;14.35;2.25;;;;;;;8.41;100.00;101051.00;4925542;28;20252;-49
2022/11/03 08:26:40;;;;;;;5.70;2.17;;;;;;;8.37;100.00;101051.97;4925194;29;20532;-50
2022/11/03 08:29:06;;;;;;;7.65;2.03;;;;;;;8.37;100.00;101052.84;4924136;29;20199;-48
2022/11/03 08:31:31;;;;;;;10.02;2.50;;;;;;;8.40;100.00;101049.25;4986089;28;20223;-51
2022/11/03 08:33:57;;;;;;;10.20;2.60;;;;;;;8.46;100.00;101038.41;4989401;28;20211;-48
2022/11/03 08:36:22;;;;;;;9.35;2.40;;;;;;;8.51;99.78;101036.50;4925253;29;20216;-51
2022/11/03 08:38:48;;;;;;;7.43;2.17;;;;;;;8.50;99.82;101040.09;4925297;28;20192;-47
2022/11/03 08:41:13;;;;;;;7.60;2.75;;;;;;;8.57;99.86;101041.69;4926076;29;20285;-48
2022/11/03 08:43:39;;;;;;;9.93;2.33;;;;;;;8.59;99.64;101025.63;4915133;29;20290;-50
2022/11/03 08:46:04;;;;;;;10.32;2.35;;;;;;;8.64;99.56;101032.59;4918988;28;20267;-48
2022/11/03 08:48:30;;;;;;;9.90;2.42;;;;;;;8.68;99.54;101022.72;4988610;28;20215;-49
2022/11/03 08:50:55;;;;;;;7.80;2.20;;;;;;;8.73;99.24;101026.13;4989253;28;20200;-48
2022/11/03 08:53:22;;;;;;;8.48;2.05;;;;;;;8.85;99.18;101030.25;4935275;28;20188;-50
2022/11/03 08:55:48;;;;;;;7.25;2.22;;;;;;;8.94;99.01;101027.31;4922460;29;20239;-49
2022/11/03 08:58:13;;;;;;;8.23;2.20;;;;;;;9.10;98.84;101024.22;5007859;28;20187;-48
2022/11/03 09:00:39;;;;;;;8.93;2.28;;;;;;;9.19;98.46;101015.94;4921950;28;20207;-47
2022/11/03 09:03:04;;;;;;;6.95;2.13;;;;;;;9.39;97.91;101020.69;4921848;29;20600;-47
2022/11/03 09:05:30;;;;;;;7.95;2.33;;;;;;;9.47;97.45;101006.16;4919280;29;20342;-47
2022/11/03 09:07:56;;;;;;;9.45;2.35;;;;;;;9.55;96.86;101013.06;4925155;29;20207;-49
2022/11/03 09:10:21;;;;;;;9.80;2.63;;;;;;;9.70;96.27;100996.53;4924641;29;20200;-49
2022/11/03 09:12:47;;;;;;;9.35;2.67;;;;;;;9.72;95.61;100994.66;5003182;28;20188;-48
2022/11/03 09:15:12;;;;;;;7.72;2.08;;;;;;;9.77;95.15;100997.19;5007927;28;20219;-48
2022/11/03 09:17:38;;;;;;;10.50;2.53;;;;;;;9.75;94.90;101002.63;4989265;28;20268;-48
2022/11/03 09:20:05;;;;;;;9.38;2.60;;;;;;;9.88;94.76;100993.25;4925877;28;20275;-48
2022/11/03 09:22:30;;;;;;;7.32;2.35;;;;;;;9.97;94.31;100976.03;4922676;29;20213;-47
2022/11/03 09:24:55;;;;;;;9.27;2.53;;;;;;;10.05;94.22;100987.34;4984519;28;20591;-49
2022/11/03 09:27:21;;;;;;;7.40;2.33;;;;;;;9.82;93.97;100987.25;4926961;29;20219;-49
2022/11/03 09:29:47;;;;;;;9.80;2.50;;;;;;;9.72;94.03;100988.44;4922090;29;20188;-47
2022/11/03 09:32:12;;;;;;;10.27;2.78;;;;;;;9.80;94.14;100967.69;4923363;28;20187;-50
2022/11/03 09:34:38;;;;;;;9.52;2.85;;;;;;;10.07;94.00;100969.41;5001501;28;20228;-47
2022/11/03 09:37:03;;;;;;;8.63;2.50;;;;;;;10.20;93.40;100959.16;4924357;29;20218;-48
2022/11/03 09:39:29;;;;;;;10.18;2.67;;;;;;;10.29;93.08;100961.56;4988065;28;20199;-48
2022/11/03 09:41:56;;;;;;;10.23;3.63;;;;;;;10.38;92.52;100965.72;4923186;29;20184;-48
2022/11/03 09:44:23;;;;;;;6.88;2.67;;;;;;;10.78;92.29;100966.97;4921834;29;20722;-49
2022/11/03 09:46:50;;;;;;;10.60;2.72;;;;;;;10.65;91.19;100939.75;4920341;29;20206;-48
2022/11/03 09:49:18;;;;;;;9.55;2.63;;;;;;;10.85;90.86;100946.19;4925913;29;20195;-48
2022/11/03 09:51:44;;;;;;;11.45;3.70;;;;;;;10.78;90.49;100945.53;4925606;28;20188;-48
2022/11/03 09:54:14;;;;;;;9.07;2.67;;;;;;;10.74;90.36;100938.53;4923324;29;20207;-48
2022/11/03 09:56:40;;;;;;;8.93;3.00;;;;;;;10.87;90.35;100938.97;4923066;29;21050;-48
2022/11/03 09:59:16;;;;;;;9.40;2.90;;;;;;;10.84;90.39;100941.72;4921186;29;20241;-47
2022/11/03 10:01:44;;;;;;;7.38;2.30;;;;;;;10.70;90.33;100934.22;4992729;28;20191;-46
2022/11/03 10:04:13;;;;;;;10.00;2.25;;;;;;;10.76;90.16;100936.69;5026629;23;20240;-49
2022/11/03 10:06:39;;;;;;;10.52;2.25;;;;;;;10.73;90.34;100939.44;5017210;28;20343;-48
2022/11/03 10:09:13;;;;;;;6.35;1.85;;;;;;;10.61;90.37;100926.53;5002268;28;20318;-48
2022/11/03 10:11:39;;;;;;;8.25;2.42;;;;;;;10.57;90.50;100928.44;4992622;28;20659;-46
2022/11/03 10:14:07;;;;;;;6.18;2.10;;;;;;;10.47;90.62;100929.69;4996809;28;20296;-47
2022/11/03 10:16:33;;;;;;;7.32;2.42;;;;;;;10.50;90.93;100924.25;4988175;28;20610;-49
2022/11/03 10:18:59;;;;;;;7.47;2.45;;;;;;;10.47;91.25;100929.69;4996495;28;20600;-49
2022/11/03 10:21:30;;;;;;;6.72;2.08;;;;;;;10.46;91.34;100925.28;4990942;28;20194;-51
2022/11/03 10:23:55;;;;;;;7.43;2.30;;;;;;;10.50;91.61;100925.09;4991641;28;20233;-48
2022/11/03 10:26:22;;;;;;;7.88;1.80;;;;;;;10.44;91.71;100924.47;4995979;28;20268;-49
2022/11/03 10:29:09;;;;;;;6.15;2.00;;;;;;;10.47;92.25;100914.50;4991829;28;20205;-50
2022/11/03 10:31:39;;;;;;;5.70;1.90;;;;;;;10.45;91.87;100915.47;4990698;28;20188;-50
2022/11/03 10:34:22;;;;;;;10.98;2.60;;;;;;;10.47;91.79;100911.84;4992727;28;20208;-49
2022/11/03 10:36:48;;;;;;;5.75;1.88;;;;;;;10.46;91.86;100918.09;4975368;28;20213;-50
2022/11/03 10:39:28;;;;;;;9.68;1.70;;;;;;;10.57;91.84;100908.81;4997008;28;20676;-49
2022/11/03 10:41:58;;;;;;;7.82;2.45;;;;;;;10.56;91.70;100905.25;4982505;28;20186;-49
2022/11/03 10:44:27;;;;;;;11.00;2.17;;;;;;;10.81;91.54;100901.66;5002390;28;20193;-49
2022/11/03 10:47:03;;;;;;;8.80;2.17;;;;;;;10.83;91.34;100895.31;4982003;28;20555;-48
2022/11/03 10:49:31;;;;;;;5.85;1.98;;;;;;;10.86;90.91;100897.84;4973636;28;20288;-48
2022/11/03 10:52:15;;;;;;;8.88;2.00;;;;;;;11.07;90.56;100888.13;4989715;28;20185;-48
2022/11/03 10:54:40;;;;;;;10.35;2.40;;;;;;;11.03;90.16;100885.63;4972928;28;20209;-49
2022/11/03 10:57:06;;;;;;;7.28;2.10;;;;;;;11.04;89.97;100888.25;4986721;28;20321;-50
2022/11/03 10:59:35;;;;;;;7.90;2.15;;;;;;;11.10;89.93;100889.78;4989773;28;20236;-48
2022/11/03 11:02:02;;;;;;;7.82;2.00;;;;;;;11.09;89.59;100871.97;4988176;28;20268;-49
2022/11/03 11:04:28;;;;;;;11.02;2.72;;;;;;;11.17;89.69;100864.47;4995123;28;20254;-50
2022/11/03 11:06:54;;;;;;;6.03;2.15;;;;;;;11.17;89.44;100872.50;4995799;28;20208;-47
2022/11/03 11:09:24;;;;;;;8.52;2.30;;;;;;;11.20;89.30;100863.50;4992045;28;20201;-47
2022/11/03 11:12:04;;;;;;;6.47;1.90;;;;;;;11.22;89.25;100853.59;4977200;28;20181;-49
2022/11/03 11:14:33;;;;;;;11.65;2.47;;;;;;;11.23;89.03;100860.69;4992025;28;20244;-49
2022/11/03 11:16:59;;;;;;;6.13;1.63;;;;;;;11.22;88.90;100857.13;4992746;28;20192;-48
2022/11/03 11:19:26;;;;;;;7.53;2.38;;;;;;;11.29;89.12;100849.72;4996180;28;20190;-50
2022/11/03 11:21:52;;;;;;;8.75;1.80;;;;;;;11.25;89.15;100846.28;4994344;28;20301;-47
2022/11/03 11:24:42;;;;;;;5.45;2.10;;;;;;;11.28;89.17;100846.16;4973555;28;20251;-48
2022/11/03 11:27:45;;;;;;;5.88;1.88;;;;;;;11.38;89.36;100849.31;4977966;28;20622;-47
2022/11/03 11:30:20;;;;;;;7.53;1.90;;;;;;;11.41;89.37;100837.59;4991459;28;20923;-50
2022/11/03 11:32:45;;;;;;;8.15;2.38;;;;;;;11.44;89.23;100845.53;4997498;28;20193;-48
2022/11/03 11:35:16;;;;;;;7.13;1.90;;;;;;;11.50;89.42;100843.47;4973511;28;21084;-48
2022/11/03 11:37:41;;;;;;;6.07;1.92;;;;;;;11.54;89.16;100837.03;4992391;28;20327;-49
2022/11/03 11:40:13;;;;;;;10.38;2.63;;;;;;;11.61;89.33;100834.06;4997130;28;20271;-49
2022/11/03 11:43:09;;;;;;;7.75;2.60;;;;;;;11.58;89.31;100828.84;4993969;28;20667;-48
2022/11/03 11:46:12;;;;;;;11.40;2.40;;;;;;;11.67;89.07;100831.13;4975284;28;20243;-52
2022/11/03 11:48:38;;;;;;;4.78;1.92;;;;;;;11.57;88.99;100825.28;4975947;28;20311;-48
2022/11/03 11:51:09;;;;;;;8.27;2.30;;;;;;;11.64;89.19;100817.84;4961747;28;20296;-47
2022/11/03 11:53:43;;;;;;;10.65;2.50;;;;;;;11.68;89.55;100803.38;4978957;28;20208;-48
2022/11/03 11:56:11;;;;;;;7.13;2.05;;;;;;;11.68;89.42;100801.56;4995749;28;20536;-49